LiveATC.Net - Listen to live air traffic control over the Internet!


ICAO: KHXD  IATA: HXD   Airport: Hilton Head Airport
City: Hilton Head Island   State/Province: South Carolina
Country: United States   Continent: North America
KHXD METAR Weather: KHXD 210415Z AUTO VRB03KT 2SM BR OVC002 14/13 A3012 RMK AO2
KHXD Flight Activity (FlightAware)
KHXD Airport Info   (iFlightPlanner)
KHXD VFR Sectional Chart   (iFlightPlanner) 
KHXD IFR Low Chart   (iFlightPlanner) 

KHXD Ground/Tower
Feed Status: DOWN
Last heard on: 2019-02-21 04:49:03 (0 days 0 hours 1 minutes ago)
KHXD Ground/Tower Audio Archives
FacilityFrequency
Hilton Head Ground121.100
Hilton Head Tower118.975

NOTICE

Unauthorized use prohibited. See LiveATC.net Terms of Service


Find LiveATC Audio Streams


Airport/ARTCC Code

Frequency Search
(e.g., 124.400, 128.75)
Site-wide search
 


Browse LiveATC Feeds
Top 50 LiveATC Feeds
LiveATC Feed Map
Bad Weather Areas

LiveATC FAQ
Offer LiveATC feed
Contact LiveATC.net
Press Inquiries

LiveATC on iPhone
LiveATC on Android

Windows Phone
Windows 8/10

LiveATC Mobile
(Mobile browser)

ATC Audio Archives
Interesting Recordings

LiveATC Forums


Home Page
About LiveATC.net
Make a Donation
Terms of Use
Privacy Policy

Canadian Air Freqs

AIRMETs/SIGMETs

FAA Airport Status
Nat'l Airspace Status
Arrival Demand Charts


Server Software By:
Icecast.org
Liquidsoap